sensor_id;sensor_type;location;lat;lon;timestamp;temperature;humidity
51725;DHT22;37801;53.224;6.552;2023-03-13T00:00:18;7.60;99.90
51725;DHT22;37801;53.224;6.552;2023-03-13T00:02:44;7.60;99.90
51725;DHT22;37801;53.224;6.552;2023-03-13T00:05:10;7.60;99.90
51725;DHT22;37801;53.224;6.552;2023-03-13T00:07:36;7.60;99.90
51725;DHT22;37801;53.224;6.552;2023-03-13T00:10:03;7.60;99.90
51725;DHT22;37801;53.224;6.552;2023-03-13T00:12:29;7.60;99.90
51725;DHT22;37801;53.224;6.552;2023-03-13T00:14:55;7.60;99.90
51725;DHT22;37801;53.224;6.552;2023-03-13T00:17:20;7.60;99.90
51725;DHT22;37801;53.224;6.552;2023-03-13T00:19:46;7.60;99.90
51725;DHT22;37801;53.224;6.552;2023-03-13T00:22:12;7.60;99.90
51725;DHT22;37801;53.224;6.552;2023-03-13T00:24:37;7.60;99.90
51725;DHT22;37801;53.224;6.552;2023-03-13T00:27:03;7.60;99.90
51725;DHT22;37801;53.224;6.552;2023-03-13T00:29:32;7.60;99.90
51725;DHT22;37801;53.224;6.552;2023-03-13T00:31:58;7.60;99.90
51725;DHT22;37801;53.224;6.552;2023-03-13T00:34:23;7.60;99.90
51725;DHT22;37801;53.224;6.552;2023-03-13T00:36:52;7.60;99.90
51725;DHT22;37801;53.224;6.552;2023-03-13T00:39:19;7.60;99.90
51725;DHT22;37801;53.224;6.552;2023-03-13T00:41:45;7.60;99.90
51725;DHT22;37801;53.224;6.552;2023-03-13T00:44:11;7.70;99.90
51725;DHT22;37801;53.224;6.552;2023-03-13T00:46:37;7.60;99.90
51725;DHT22;37801;53.224;6.552;2023-03-13T00:49:03;7.60;99.90
51725;DHT22;37801;53.224;6.552;2023-03-13T00:51:29;7.60;99.90
51725;DHT22;37801;53.224;6.552;2023-03-13T00:53:56;7.60;99.90
51725;DHT22;37801;53.224;6.552;2023-03-13T00:56:25;7.60;99.90
51725;DHT22;37801;53.224;6.552;2023-03-13T00:58:51;7.60;99.90
51725;DHT22;37801;53.224;6.552;2023-03-13T01:03:50;7.60;99.90
51725;DHT22;37801;53.224;6.552;2023-03-13T01:06:19;7.60;99.90
51725;DHT22;37801;53.224;6.552;2023-03-13T01:08:45;7.60;99.90
51725;DHT22;37801;53.224;6.552;2023-03-13T01:11:14;7.70;99.90
51725;DHT22;37801;53.224;6.552;2023-03-13T01:13:41;7.70;99.90
51725;DHT22;37801;53.224;6.552;2023-03-13T01:16:09;7.60;99.90
51725;DHT22;37801;53.224;6.552;2023-03-13T01:18:37;7.70;99.90
51725;DHT22;37801;53.224;6.552;2023-03-13T01:21:04;7.60;99.90
51725;DHT22;37801;53.224;6.552;2023-03-13T01:23:30;7.60;99.90
51725;DHT22;37801;53.224;6.552;2023-03-13T01:25:56;7.70;99.90
51725;DHT22;37801;53.224;6.552;2023-03-13T01:28:23;7.60;99.90
51725;DHT22;37801;53.224;6.552;2023-03-13T01:30:49;7.60;99.90
51725;DHT22;37801;53.224;6.552;2023-03-13T01:33:16;7.60;99.90
51725;DHT22;37801;53.224;6.552;2023-03-13T01:35:42;7.70;99.90
51725;DHT22;37801;53.224;6.552;2023-03-13T01:38:08;7.70;99.90
51725;DHT22;37801;53.224;6.552;2023-03-13T01:40:42;7.70;99.90
51725;DHT22;37801;53.224;6.552;2023-03-13T01:43:17;7.70;99.90
51725;DHT22;37801;53.224;6.552;2023-03-13T01:48:39;7.70;99.90
51725;DHT22;37801;53.224;6.552;2023-03-13T01:51:20;7.70;99.90
51725;DHT22;37801;53.224;6.552;2023-03-13T01:56:40;7.70;99.90
51725;DHT22;37801;53.224;6.552;2023-03-13T01:59:10;7.70;99.90
51725;DHT22;37801;53.224;6.552;2023-03-13T02:01:37;7.80;99.90
51725;DHT22;37801;53.224;6.552;2023-03-13T02:04:04;7.70;99.90
51725;DHT22;37801;53.224;6.552;2023-03-13T02:06:31;7.80;99.90
51725;DHT22;37801;53.224;6.552;2023-03-13T02:09:05;7.70;99.90
51725;DHT22;37801;53.224;6.552;2023-03-13T02:12:06;7.70;99.90
51725;DHT22;37801;53.224;6.552;2023-03-13T02:14:35;7.80;99.90
51725;DHT22;37801;53.224;6.552;2023-03-13T02:17:03;7.80;99.90
51725;DHT22;37801;53.224;6.552;2023-03-13T02:24:53;7.80;99.90
51725;DHT22;37801;53.224;6.552;2023-03-13T02:27:21;7.80;99.90
51725;DHT22;37801;53.224;6.552;2023-03-13T02:29:47;7.80;99.90
51725;DHT22;37801;53.224;6.552;2023-03-13T02:32:14;7.80;99.90
51725;DHT22;37801;53.224;6.552;2023-03-13T02:34:42;7.80;99.90
51725;DHT22;37801;53.224;6.552;2023-03-13T02:37:08;7.80;99.90
51725;DHT22;37801;53.224;6.552;2023-03-13T02:39:36;7.90;99.90
51725;DHT22;37801;53.224;6.552;2023-03-13T02:42:04;7.80;99.90
51725;DHT22;37801;53.224;6.552;2023-03-13T02:44:30;7.80;99.90
51725;DHT22;37801;53.224;6.552;2023-03-13T02:46:56;7.80;99.90
51725;DHT22;37801;53.224;6.552;2023-03-13T02:49:27;7.80;99.90
51725;DHT22;37801;53.224;6.552;2023-03-13T02:51:56;7.80;99.90
51725;DHT22;37801;53.224;6.552;2023-03-13T02:54:31;7.80;99.90
51725;DHT22;37801;53.224;6.552;2023-03-13T02:57:00;8.10;99.90
51725;DHT22;37801;53.224;6.552;2023-03-13T02:59:27;7.70;99.90
51725;DHT22;37801;53.224;6.552;2023-03-13T03:01:53;8.10;99.90
51725;DHT22;37801;53.224;6.552;2023-03-13T03:04:20;8.10;99.90
51725;DHT22;37801;53.224;6.552;2023-03-13T03:06:47;7.80;99.90
51725;DHT22;37801;53.224;6.552;2023-03-13T03:09:13;7.90;99.90
51725;DHT22;37801;53.224;6.552;2023-03-13T03:11:39;7.90;99.90
51725;DHT22;37801;53.224;6.552;2023-03-13T03:14:05;7.80;99.90
51725;DHT22;37801;53.224;6.552;2023-03-13T03:16:31;8.20;99.90
51725;DHT22;37801;53.224;6.552;2023-03-13T03:18:56;8.20;99.90
51725;DHT22;37801;53.224;6.552;2023-03-13T03:21:22;8.30;99.90
51725;DHT22;37801;53.224;6.552;2023-03-13T03:23:49;8.00;99.90
51725;DHT22;37801;53.224;6.552;2023-03-13T03:26:15;8.30;99.90
51725;DHT22;37801;53.224;6.552;2023-03-13T03:28:41;8.00;99.90
51725;DHT22;37801;53.224;6.552;2023-03-13T03:31:09;8.20;99.90
51725;DHT22;37801;53.224;6.552;2023-03-13T03:33:35;8.00;99.90
51725;DHT22;37801;53.224;6.552;2023-03-13T03:36:03;8.30;99.90
51725;DHT22;37801;53.224;6.552;2023-03-13T03:38:30;8.10;99.90
51725;DHT22;37801;53.224;6.552;2023-03-13T03:40:55;7.90;99.90
51725;DHT22;37801;53.224;6.552;2023-03-13T03:43:21;8.40;99.90
51725;DHT22;37801;53.224;6.552;2023-03-13T03:45:47;7.90;99.90
51725;DHT22;37801;53.224;6.552;2023-03-13T03:48:12;8.40;99.90
51725;DHT22;37801;53.224;6.552;2023-03-13T03:50:38;8.50;99.90
51725;DHT22;37801;53.224;6.552;2023-03-13T03:53:04;8.50;99.90
51725;DHT22;37801;53.224;6.552;2023-03-13T03:55:30;8.10;99.90
51725;DHT22;37801;53.224;6.552;2023-03-13T03:57:55;8.60;99.90
51725;DHT22;37801;53.224;6.552;2023-03-13T04:00:21;8.10;99.90
51725;DHT22;37801;53.224;6.552;2023-03-13T04:02:47;8.20;99.90
51725;DHT22;37801;53.224;6.552;2023-03-13T04:05:12;8.10;99.90
51725;DHT22;37801;53.224;6.552;2023-03-13T04:07:38;8.20;99.90
51725;DHT22;37801;53.224;6.552;2023-03-13T04:10:04;8.60;99.90
51725;DHT22;37801;53.224;6.552;2023-03-13T04:12:30;8.20;99.90
51725;DHT22;37801;53.224;6.552;2023-03-13T04:14:56;8.60;99.90
51725;DHT22;37801;53.224;6.552;2023-03-13T04:17:21;8.30;99.90
51725;DHT22;37801;53.224;6.552;2023-03-13T04:19:47;8.30;99.90
51725;DHT22;37801;53.224;6.552;2023-03-13T04:22:13;8.30;99.90
51725;DHT22;37801;53.224;6.552;2023-03-13T04:24:39;8.50;99.90
51725;DHT22;37801;53.224;6.552;2023-03-13T04:27:04;8.80;99.90
51725;DHT22;37801;53.224;6.552;2023-03-13T04:29:31;8.20;99.90
51725;DHT22;37801;53.224;6.552;2023-03-13T04:31:57;8.30;99.90
51725;DHT22;37801;53.224;6.552;2023-03-13T04:34:23;8.90;99.90
51725;DHT22;37801;53.224;6.552;2023-03-13T04:36:49;8.40;99.90
51725;DHT22;37801;53.224;6.552;2023-03-13T04:39:14;8.90;99.90
51725;DHT22;37801;53.224;6.552;2023-03-13T04:41:40;9.00;99.90
51725;DHT22;37801;53.224;6.552;2023-03-13T04:44:06;8.90;99.90
51725;DHT22;37801;53.224;6.552;2023-03-13T04:46:32;8.80;99.90
51725;DHT22;37801;53.224;6.552;2023-03-13T04:48:58;8.40;99.90
51725;DHT22;37801;53.224;6.552;2023-03-13T04:51:24;8.50;99.90
51725;DHT22;37801;53.224;6.552;2023-03-13T04:53:49;9.10;99.90
51725;DHT22;37801;53.224;6.552;2023-03-13T04:56:22;8.80;99.90
51725;DHT22;37801;53.224;6.552;2023-03-13T04:58:48;9.00;99.90
51725;DHT22;37801;53.224;6.552;2023-03-13T05:01:14;9.20;99.90
51725;DHT22;37801;53.224;6.552;2023-03-13T05:03:39;8.60;99.90
51725;DHT22;37801;53.224;6.552;2023-03-13T05:06:05;8.70;99.90
51725;DHT22;37801;53.224;6.552;2023-03-13T05:08:31;8.80;99.90
51725;DHT22;37801;53.224;6.552;2023-03-13T05:10:56;8.90;99.90
51725;DHT22;37801;53.224;6.552;2023-03-13T05:13:22;8.70;99.90
51725;DHT22;37801;53.224;6.552;2023-03-13T05:15:48;9.40;99.90
51725;DHT22;37801;53.224;6.552;2023-03-13T05:18:14;9.00;99.90
51725;DHT22;37801;53.224;6.552;2023-03-13T05:20:40;9.20;99.90
51725;DHT22;37801;53.224;6.552;2023-03-13T05:23:05;9.10;99.90
51725;DHT22;37801;53.224;6.552;2023-03-13T05:25:31;9.10;99.90
51725;DHT22;37801;53.224;6.552;2023-03-13T05:27:57;9.00;99.90
51725;DHT22;37801;53.224;6.552;2023-03-13T05:30:23;9.50;99.90
51725;DHT22;37801;53.224;6.552;2023-03-13T05:32:48;9.00;99.90
51725;DHT22;37801;53.224;6.552;2023-03-13T05:35:14;9.00;99.90
51725;DHT22;37801;53.224;6.552;2023-03-13T05:37:40;9.20;99.90
51725;DHT22;37801;53.224;6.552;2023-03-13T05:40:06;9.60;99.90
51725;DHT22;37801;53.224;6.552;2023-03-13T05:42:32;9.80;99.90
51725;DHT22;37801;53.224;6.552;2023-03-13T05:44:58;9.10;99.90
51725;DHT22;37801;53.224;6.552;2023-03-13T05:47:23;9.40;99.90
51725;DHT22;37801;53.224;6.552;2023-03-13T05:49:49;9.20;99.90
51725;DHT22;37801;53.224;6.552;2023-03-13T05:52:15;9.90;99.90
51725;DHT22;37801;53.224;6.552;2023-03-13T05:54:40;9.90;99.90
51725;DHT22;37801;53.224;6.552;2023-03-13T05:57:06;9.90;99.90
51725;DHT22;37801;53.224;6.552;2023-03-13T05:59:32;9.10;99.90
51725;DHT22;37801;53.224;6.552;2023-03-13T06:01:58;9.30;99.90
51725;DHT22;37801;53.224;6.552;2023-03-13T06:04:23;9.20;99.90
51725;DHT22;37801;53.224;6.552;2023-03-13T06:06:49;9.50;99.90
51725;DHT22;37801;53.224;6.552;2023-03-13T06:09:15;9.70;99.90
51725;DHT22;37801;53.224;6.552;2023-03-13T06:11:40;9.90;99.90
51725;DHT22;37801;53.224;6.552;2023-03-13T06:14:07;9.40;99.90
51725;DHT22;37801;53.224;6.552;2023-03-13T06:16:33;9.90;99.90
51725;DHT22;37801;53.224;6.552;2023-03-13T06:18:58;10.00;99.90
51725;DHT22;37801;53.224;6.552;2023-03-13T06:21:24;9.30;99.90
51725;DHT22;37801;53.224;6.552;2023-03-13T06:23:50;9.80;99.90
51725;DHT22;37801;53.224;6.552;2023-03-13T06:26:16;9.40;99.90
51725;DHT22;37801;53.224;6.552;2023-03-13T06:28:42;9.90;99.90
51725;DHT22;37801;53.224;6.552;2023-03-13T06:31:07;9.20;99.90
51725;DHT22;37801;53.224;6.552;2023-03-13T06:33:34;9.40;99.90
51725;DHT22;37801;53.224;6.552;2023-03-13T06:36:01;9.80;99.90
51725;DHT22;37801;53.224;6.552;2023-03-13T06:38:27;9.50;99.90
51725;DHT22;37801;53.224;6.552;2023-03-13T06:40:53;9.50;99.90
51725;DHT22;37801;53.224;6.552;2023-03-13T06:43:19;9.30;99.90
51725;DHT22;37801;53.224;6.552;2023-03-13T06:45:45;9.50;99.90
51725;DHT22;37801;53.224;6.552;2023-03-13T06:48:11;9.40;99.90
51725;DHT22;37801;53.224;6.552;2023-03-13T06:50:37;9.50;99.90
51725;DHT22;37801;53.224;6.552;2023-03-13T06:53:03;9.40;99.90
51725;DHT22;37801;53.224;6.552;2023-03-13T06:55:29;9.70;99.90
51725;DHT22;37801;53.224;6.552;2023-03-13T06:57:55;9.90;99.90
51725;DHT22;37801;53.224;6.552;2023-03-13T07:00:21;9.60;99.90
51725;DHT22;37801;53.224;6.552;2023-03-13T07:02:47;9.40;99.90
51725;DHT22;37801;53.224;6.552;2023-03-13T07:05:13;9.60;99.90
51725;DHT22;37801;53.224;6.552;2023-03-13T07:07:40;9.50;99.90
51725;DHT22;37801;53.224;6.552;2023-03-13T07:10:06;10.10;99.90
51725;DHT22;37801;53.224;6.552;2023-03-13T07:12:34;10.00;99.90
51725;DHT22;37801;53.224;6.552;2023-03-13T07:15:00;9.70;99.90
51725;DHT22;37801;53.224;6.552;2023-03-13T07:17:25;9.70;99.90
51725;DHT22;37801;53.224;6.552;2023-03-13T07:19:51;10.10;99.90
51725;DHT22;37801;53.224;6.552;2023-03-13T07:22:17;9.90;99.90
51725;DHT22;37801;53.224;6.552;2023-03-13T07:24:42;9.70;99.90
51725;DHT22;37801;53.224;6.552;2023-03-13T07:27:08;10.10;99.90
51725;DHT22;37801;53.224;6.552;2023-03-13T07:29:34;10.10;99.90
51725;DHT22;37801;53.224;6.552;2023-03-13T07:32:00;10.00;99.90
51725;DHT22;37801;53.224;6.552;2023-03-13T07:34:26;9.60;99.90
51725;DHT22;37801;53.224;6.552;2023-03-13T07:36:51;9.40;99.90
51725;DHT22;37801;53.224;6.552;2023-03-13T07:39:17;9.80;99.90
51725;DHT22;37801;53.224;6.552;2023-03-13T07:41:43;10.20;99.90
51725;DHT22;37801;53.224;6.552;2023-03-13T07:44:08;9.50;99.90
51725;DHT22;37801;53.224;6.552;2023-03-13T07:46:34;9.40;99.90
51725;DHT22;37801;53.224;6.552;2023-03-13T07:49:00;9.50;99.90
51725;DHT22;37801;53.224;6.552;2023-03-13T07:51:26;10.20;99.90
51725;DHT22;37801;53.224;6.552;2023-03-13T07:53:52;9.70;99.90
51725;DHT22;37801;53.224;6.552;2023-03-13T07:56:20;10.20;99.90
51725;DHT22;37801;53.224;6.552;2023-03-13T07:58:46;10.20;99.90
51725;DHT22;37801;53.224;6.552;2023-03-13T08:01:21;9.40;99.90
51725;DHT22;37801;53.224;6.552;2023-03-13T08:03:48;9.50;99.90
51725;DHT22;37801;53.224;6.552;2023-03-13T08:06:17;10.10;99.90
51725;DHT22;37801;53.224;6.552;2023-03-13T08:08:44;10.10;99.90
51725;DHT22;37801;53.224;6.552;2023-03-13T08:11:12;10.20;99.90
51725;DHT22;37801;53.224;6.552;2023-03-13T08:13:38;9.50;99.90
51725;DHT22;37801;53.224;6.552;2023-03-13T08:16:09;10.30;99.90
51725;DHT22;37801;53.224;6.552;2023-03-13T08:18:37;9.70;99.90
51725;DHT22;37801;53.224;6.552;2023-03-13T08:21:08;9.70;99.90
51725;DHT22;37801;53.224;6.552;2023-03-13T08:23:35;10.20;99.90
51725;DHT22;37801;53.224;6.552;2023-03-13T08:26:07;9.60;99.90
51725;DHT22;37801;53.224;6.552;2023-03-13T08:28:35;10.40;99.90
51725;DHT22;37801;53.224;6.552;2023-03-13T08:31:10;9.70;99.90
51725;DHT22;37801;53.224;6.552;2023-03-13T08:33:37;9.70;99.90
51725;DHT22;37801;53.224;6.552;2023-03-13T08:38:40;10.30;99.90
51725;DHT22;37801;53.224;6.552;2023-03-13T08:41:13;10.50;99.90
51725;DHT22;37801;53.224;6.552;2023-03-13T08:43:39;10.20;99.90
51725;DHT22;37801;53.224;6.552;2023-03-13T08:46:04;9.80;99.90
51725;DHT22;37801;53.224;6.552;2023-03-13T08:48:30;10.00;99.90
51725;DHT22;37801;53.224;6.552;2023-03-13T08:53:26;10.40;99.90
51725;DHT22;37801;53.224;6.552;2023-03-13T08:55:52;10.40;99.90
51725;DHT22;37801;53.224;6.552;2023-03-13T08:58:18;10.40;99.90
51725;DHT22;37801;53.224;6.552;2023-03-13T09:00:44;9.70;99.90
51725;DHT22;37801;53.224;6.552;2023-03-13T09:03:10;10.10;99.90
51725;DHT22;37801;53.224;6.552;2023-03-13T09:05:39;10.00;99.90
51725;DHT22;37801;53.224;6.552;2023-03-13T09:08:05;9.80;99.90
51725;DHT22;37801;53.224;6.552;2023-03-13T09:10:34;10.50;99.90
51725;DHT22;37801;53.224;6.552;2023-03-13T09:13:01;10.60;99.90
51725;DHT22;37801;53.224;6.552;2023-03-13T09:15:27;9.90;99.90
51725;DHT22;37801;53.224;6.552;2023-03-13T09:17:53;9.80;99.90
51725;DHT22;37801;53.224;6.552;2023-03-13T09:20:19;10.00;99.90
51725;DHT22;37801;53.224;6.552;2023-03-13T09:22:45;10.00;99.90
51725;DHT22;37801;53.224;6.552;2023-03-13T09:25:12;10.40;99.90
51725;DHT22;37801;53.224;6.552;2023-03-13T09:27:38;10.20;99.90
51725;DHT22;37801;53.224;6.552;2023-03-13T09:30:04;10.80;99.90
51725;DHT22;37801;53.224;6.552;2023-03-13T09:32:30;10.20;99.90
51725;DHT22;37801;53.224;6.552;2023-03-13T09:34:55;10.40;99.90
51725;DHT22;37801;53.224;6.552;2023-03-13T09:37:21;10.30;99.90
51725;DHT22;37801;53.224;6.552;2023-03-13T09:39:48;10.60;99.90
51725;DHT22;37801;53.224;6.552;2023-03-13T09:42:31;10.80;99.90
51725;DHT22;37801;53.224;6.552;2023-03-13T09:45:07;10.20;99.90
51725;DHT22;37801;53.224;6.552;2023-03-13T09:47:50;10.70;99.90
51725;DHT22;37801;53.224;6.552;2023-03-13T09:50:31;10.40;99.90
51725;DHT22;37801;53.224;6.552;2023-03-13T09:53:11;10.20;99.90
51725;DHT22;37801;53.224;6.552;2023-03-13T09:55:40;10.60;99.90
51725;DHT22;37801;53.224;6.552;2023-03-13T09:58:18;10.90;99.90
51725;DHT22;37801;53.224;6.552;2023-03-13T10:00:53;10.90;99.90
51725;DHT22;37801;53.224;6.552;2023-03-13T10:05:55;10.40;99.90
51725;DHT22;37801;53.224;6.552;2023-03-13T10:08:23;10.30;99.90
51725;DHT22;37801;53.224;6.552;2023-03-13T10:10:54;10.20;99.90
51725;DHT22;37801;53.224;6.552;2023-03-13T10:13:36;10.40;99.90
51725;DHT22;37801;53.224;6.552;2023-03-13T10:16:08;10.40;99.90
51725;DHT22;37801;53.224;6.552;2023-03-13T10:18:35;10.70;99.90
51725;DHT22;37801;53.224;6.552;2023-03-13T10:21:17;10.20;99.90
51725;DHT22;37801;53.224;6.552;2023-03-13T10:23:52;10.60;99.90
51725;DHT22;37801;53.224;6.552;2023-03-13T10:26:32;10.40;99.90
51725;DHT22;37801;53.224;6.552;2023-03-13T10:29:11;10.20;99.90
51725;DHT22;37801;53.224;6.552;2023-03-13T10:31:46;10.20;99.90
51725;DHT22;37801;53.224;6.552;2023-03-13T10:34:15;10.20;99.90
51725;DHT22;37801;53.224;6.552;2023-03-13T10:36:44;10.40;99.90
51725;DHT22;37801;53.224;6.552;2023-03-13T10:39:18;10.20;99.90
51725;DHT22;37801;53.224;6.552;2023-03-13T10:41:44;10.10;99.90
51725;DHT22;37801;53.224;6.552;2023-03-13T10:44:18;10.10;99.90
51725;DHT22;37801;53.224;6.552;2023-03-13T10:46:46;10.10;99.90
51725;DHT22;37801;53.224;6.552;2023-03-13T10:49:17;10.20;99.90
51725;DHT22;37801;53.224;6.552;2023-03-13T10:51:50;10.20;99.90
51725;DHT22;37801;53.224;6.552;2023-03-13T10:54:33;10.20;99.90
51725;DHT22;37801;53.224;6.552;2023-03-13T10:59:41;10.40;99.90
51725;DHT22;37801;53.224;6.552;2023-03-13T11:02:32;10.40;99.90
51725;DHT22;37801;53.224;6.552;2023-03-13T11:07:44;10.40;99.90
51725;DHT22;37801;53.224;6.552;2023-03-13T11:10:22;10.40;99.90
51725;DHT22;37801;53.224;6.552;2023-03-13T11:12:53;10.50;99.90
51725;DHT22;37801;53.224;6.552;2023-03-13T11:15:30;10.60;99.90
51725;DHT22;37801;53.224;6.552;2023-03-13T11:18:02;10.60;99.90
51725;DHT22;37801;53.224;6.552;2023-03-13T11:20:35;10.70;99.90
51725;DHT22;37801;53.224;6.552;2023-03-13T11:23:41;10.80;99.90
51725;DHT22;37801;53.224;6.552;2023-03-13T11:26:41;10.80;99.90
51725;DHT22;37801;53.224;6.552;2023-03-13T11:29:20;10.90;99.90
51725;DHT22;37801;53.224;6.552;2023-03-13T11:31:59;11.00;99.90
51725;DHT22;37801;53.224;6.552;2023-03-13T11:34:32;11.00;99.90
51725;DHT22;37801;53.224;6.552;2023-03-13T11:43:05;11.10;99.90
51725;DHT22;37801;53.224;6.552;2023-03-13T11:51:23;11.10;99.90
51725;DHT22;37801;53.224;6.552;2023-03-13T11:56:42;11.20;99.90
51725;DHT22;37801;53.224;6.552;2023-03-13T12:02:14;11.20;99.90
51725;DHT22;37801;53.224;6.552;2023-03-13T12:04:57;11.30;99.90
51725;DHT22;37801;53.224;6.552;2023-03-13T12:07:40;11.30;99.90
51725;DHT22;37801;53.224;6.552;2023-03-13T12:12:55;11.30;99.90
51725;DHT22;37801;53.224;6.552;2023-03-13T12:15:27;11.40;99.90
51725;DHT22;37801;53.224;6.552;2023-03-13T12:18:00;11.40;99.90
51725;DHT22;37801;53.224;6.552;2023-03-13T12:21:10;11.40;99.90
51725;DHT22;37801;53.224;6.552;2023-03-13T12:26:19;11.30;99.90
51725;DHT22;37801;53.224;6.552;2023-03-13T12:44:25;11.40;99.90
51725;DHT22;37801;53.224;6.552;2023-03-13T12:47:02;11.40;99.90
51725;DHT22;37801;53.224;6.552;2023-03-13T12:52:42;11.40;99.90
51725;DHT22;37801;53.224;6.552;2023-03-13T12:58:09;11.50;99.90
51725;DHT22;37801;53.224;6.552;2023-03-13T13:00:38;11.50;99.90
51725;DHT22;37801;53.224;6.552;2023-03-13T13:06:02;11.50;99.90
51725;DHT22;37801;53.224;6.552;2023-03-13T13:19:49;11.50;92.70
51725;DHT22;37801;53.224;6.552;2023-03-13T13:25:26;11.40;96.30
51725;DHT22;37801;53.224;6.552;2023-03-13T13:27:53;11.40;95.00
51725;DHT22;37801;53.224;6.552;2023-03-13T13:35:35;11.40;94.50
51725;DHT22;37801;53.224;6.552;2023-03-13T13:43:24;11.30;84.40
51725;DHT22;37801;53.224;6.552;2023-03-13T13:48:38;11.30;90.20
51725;DHT22;37801;53.224;6.552;2023-03-13T13:53:46;11.30;93.00
51725;DHT22;37801;53.224;6.552;2023-03-13T14:01:48;11.30;91.50
51725;DHT22;37801;53.224;6.552;2023-03-13T14:07:04;11.20;96.90
51725;DHT22;37801;53.224;6.552;2023-03-13T14:09:42;11.20;92.80
51725;DHT22;37801;53.224;6.552;2023-03-13T14:12:25;11.30;56.40
51725;DHT22;37801;53.224;6.552;2023-03-13T14:15:20;11.30;65.70
51725;DHT22;37801;53.224;6.552;2023-03-13T14:17:52;11.30;78.30
51725;DHT22;37801;53.224;6.552;2023-03-13T14:25:55;11.30;66.10
51725;DHT22;37801;53.224;6.552;2023-03-13T14:28:26;11.40;60.40
51725;DHT22;37801;53.224;6.552;2023-03-13T14:30:56;11.40;40.60
51725;DHT22;37801;53.224;6.552;2023-03-13T14:33:23;11.40;58.50
51725;DHT22;37801;53.224;6.552;2023-03-13T14:35:51;11.40;47.00
51725;DHT22;37801;53.224;6.552;2023-03-13T14:38:22;11.40;43.60
51725;DHT22;37801;53.224;6.552;2023-03-13T14:40:50;11.40;42.20
51725;DHT22;37801;53.224;6.552;2023-03-13T14:43:29;11.40;47.70
51725;DHT22;37801;53.224;6.552;2023-03-13T14:45:55;11.40;46.60
51725;DHT22;37801;53.224;6.552;2023-03-13T14:48:30;11.40;43.70
51725;DHT22;37801;53.224;6.552;2023-03-13T14:51:14;11.40;28.50
51725;DHT22;37801;53.224;6.552;2023-03-13T14:53:53;11.40;43.70
51725;DHT22;37801;53.224;6.552;2023-03-13T14:56:19;11.40;38.50
51725;DHT22;37801;53.224;6.552;2023-03-13T14:58:46;11.40;27.90
51725;DHT22;37801;53.224;6.552;2023-03-13T15:01:23;11.50;38.00
51725;DHT22;37801;53.224;6.552;2023-03-13T15:03:50;11.40;36.90
51725;DHT22;37801;53.224;6.552;2023-03-13T15:06:26;11.40;27.50
51725;DHT22;37801;53.224;6.552;2023-03-13T15:09:19;11.40;35.20
51725;DHT22;37801;53.224;6.552;2023-03-13T15:14:41;11.30;31.00
51725;DHT22;37801;53.224;6.552;2023-03-13T15:17:25;11.40;35.50
51725;DHT22;37801;53.224;6.552;2023-03-13T15:19:56;11.30;45.40
51725;DHT22;37801;53.224;6.552;2023-03-13T15:22:29;11.30;36.20
51725;DHT22;37801;53.224;6.552;2023-03-13T15:24:56;11.30;31.20
51725;DHT22;37801;53.224;6.552;2023-03-13T15:27:24;11.30;27.40
51725;DHT22;37801;53.224;6.552;2023-03-13T15:29:50;11.30;35.60
51725;DHT22;37801;53.224;6.552;2023-03-13T15:32:23;11.30;29.00
51725;DHT22;37801;53.224;6.552;2023-03-13T15:34:49;11.30;27.90
51725;DHT22;37801;53.224;6.552;2023-03-13T15:37:15;11.30;31.80
51725;DHT22;37801;53.224;6.552;2023-03-13T15:39:41;11.30;20.30
51725;DHT22;37801;53.224;6.552;2023-03-13T15:42:07;11.40;12.80
51725;DHT22;37801;53.224;6.552;2023-03-13T15:44:32;11.40;11.60
51725;DHT22;37801;53.224;6.552;2023-03-13T15:46:58;11.40;24.80
51725;DHT22;37801;53.224;6.552;2023-03-13T15:49:24;11.40;22.90
51725;DHT22;37801;53.224;6.552;2023-03-13T15:51:50;11.30;28.60
51725;DHT22;37801;53.224;6.552;2023-03-13T15:54:15;11.30;26.70
51725;DHT22;37801;53.224;6.552;2023-03-13T15:56:41;11.30;35.10
51725;DHT22;37801;53.224;6.552;2023-03-13T15:59:11;11.20;18.40
51725;DHT22;37801;53.224;6.552;2023-03-13T16:01:38;11.20;21.80
51725;DHT22;37801;53.224;6.552;2023-03-13T16:04:04;11.20;21.80
51725;DHT22;37801;53.224;6.552;2023-03-13T16:06:30;11.20;19.10
51725;DHT22;37801;53.224;6.552;2023-03-13T16:09:00;11.10;19.00
51725;DHT22;37801;53.224;6.552;2023-03-13T16:11:26;11.10;22.80
51725;DHT22;37801;53.224;6.552;2023-03-13T16:13:52;11.10;24.90
51725;DHT22;37801;53.224;6.552;2023-03-13T16:16:25;11.10;14.20
51725;DHT22;37801;53.224;6.552;2023-03-13T16:18:53;11.10;23.20
51725;DHT22;37801;53.224;6.552;2023-03-13T16:21:22;11.10;10.90
51725;DHT22;37801;53.224;6.552;2023-03-13T16:23:49;11.10;7.00
51725;DHT22;37801;53.224;6.552;2023-03-13T16:26:20;11.10;12.30
51725;DHT22;37801;53.224;6.552;2023-03-13T16:28:47;11.00;25.90
51725;DHT22;37801;53.224;6.552;2023-03-13T16:31:21;11.00;18.90
51725;DHT22;37801;53.224;6.552;2023-03-13T16:33:48;11.00;27.00
51725;DHT22;37801;53.224;6.552;2023-03-13T16:36:17;10.90;19.30
51725;DHT22;37801;53.224;6.552;2023-03-13T16:38:43;10.90;16.80
51725;DHT22;37801;53.224;6.552;2023-03-13T16:41:15;10.90;20.20
51725;DHT22;37801;53.224;6.552;2023-03-13T16:43:42;10.90;24.80
51725;DHT22;37801;53.224;6.552;2023-03-13T16:46:15;10.80;30.20
51725;DHT22;37801;53.224;6.552;2023-03-13T16:48:41;10.80;31.30
51725;DHT22;37801;53.224;6.552;2023-03-13T16:51:15;10.70;25.60
51725;DHT22;37801;53.224;6.552;2023-03-13T16:53:43;10.70;24.30
51725;DHT22;37801;53.224;6.552;2023-03-13T16:56:24;10.70;28.90
51725;DHT22;37801;53.224;6.552;2023-03-13T16:58:51;10.70;24.60
51725;DHT22;37801;53.224;6.552;2023-03-13T17:01:17;10.70;38.80
51725;DHT22;37801;53.224;6.552;2023-03-13T17:03:44;10.60;36.10
51725;DHT22;37801;53.224;6.552;2023-03-13T17:06:16;10.50;40.30
51725;DHT22;37801;53.224;6.552;2023-03-13T17:08:42;10.50;40.30
51725;DHT22;37801;53.224;6.552;2023-03-13T17:11:13;10.50;37.30
51725;DHT22;37801;53.224;6.552;2023-03-13T17:13:44;10.50;33.70
51725;DHT22;37801;53.224;6.552;2023-03-13T17:16:22;10.50;33.60
51725;DHT22;37801;53.224;6.552;2023-03-13T17:18:50;10.50;30.80
51725;DHT22;37801;53.224;6.552;2023-03-13T17:21:22;10.40;34.40
51725;DHT22;37801;53.224;6.552;2023-03-13T17:23:49;10.50;28.70
51725;DHT22;37801;53.224;6.552;2023-03-13T17:28:48;10.40;43.60
51725;DHT22;37801;53.224;6.552;2023-03-13T17:31:14;10.40;35.70
51725;DHT22;37801;53.224;6.552;2023-03-13T17:33:40;10.30;44.10
51725;DHT22;37801;53.224;6.552;2023-03-13T17:36:26;10.30;45.50
51725;DHT22;37801;53.224;6.552;2023-03-13T17:38:55;10.30;40.80
51725;DHT22;37801;53.224;6.552;2023-03-13T17:41:26;10.20;37.20
51725;DHT22;37801;53.224;6.552;2023-03-13T17:43:52;10.20;44.10
51725;DHT22;37801;53.224;6.552;2023-03-13T17:46:21;10.10;36.60
51725;DHT22;37801;53.224;6.552;2023-03-13T17:48:49;10.10;36.90
51725;DHT22;37801;53.224;6.552;2023-03-13T17:51:24;10.10;41.80